Sacramento International Airport
KSMF : now visible

Airfield :











YOU CAN JOIN US ON...

 
LOGIN :

Register | Disclaimer

   EN    FR    IT 

 









Legend :    VFR   Marginal VFR   IFR   Intensive IFR   Very Intensive IFR
Visi :
Ceiling :
>= 8 km
>= 3000ft
5 to 8 km
1000 to 3000 ft
1500m to 5 km
500 to 1000 ft
800 to 1500m
200 to 500 ft
< 800m
< 200 ft
Symbols :   Thunderstorms  Fog  Heavy snow  Heavy precipitations  Wind > 20 kt







- Airport Elevation : 27 ft
- IATA code : SMF


KSMF - Sacramento International

CURRENT METAR :
  • 160553Z 17009KT 10SM BKN250 18/16 A2979 RMK AO2 SLP087 T01830156 10289 20183 51015 $

EXPIRED METARs :
  • 160453Z 17012KT 10SM SCT250 19/15 A2978 RMK AO2 SLP085 T01940150 $
  • 160353Z 17010KT 10SM SCT250 20/14 A2977 RMK AO2 SLP079 T02000144 $

TAF KSMF
Valid from the 16 at 06:00 until the 17 at 06:00 UTC


160532Z 1606/1706 17012KT P6SM SCT250
FM161400 17011KT P6SM -SHRA OVC050
FM161800 18009KT P6SM BKN050
No reported NOTAMs for that airfield.



MET'MAP, your aeronautical weather chart ! - Copyright ORBIFLY December 2007 - Disclaimer

ORBIFLY MET'MAP TEAM :

Programming & Development : Alexandra Zaïnal
Concept & Development : Baudouin d'Aumeries
Co-Development & Prog : Marc-Olivier Méhu
Technical & hardware support : Manuel Goepfert

Contact : metmap@orbifly.com




SOURCES & CREDITS :

   NOAA       Earth
Advisory